createdAt,value
2022-08-26T00:02:10.725Z,17.28
2022-08-26T00:07:18.244Z,17.28
2022-08-26T00:12:25.840Z,17.32
2022-08-26T00:17:33.744Z,17.28
2022-08-26T00:22:41.777Z,17.28
2022-08-26T00:27:50.483Z,17.28
2022-08-26T00:32:58.879Z,17.22
2022-08-26T00:38:05.670Z,17.15
2022-08-26T00:43:12.218Z,17.06
2022-08-26T00:48:19.567Z,17.04
2022-08-26T00:53:26.618Z,17.08
2022-08-26T00:58:34.390Z,17.1
2022-08-26T01:03:41.672Z,17.08
2022-08-26T01:08:48.884Z,17.03
2022-08-26T01:13:56.348Z,16.99
2022-08-26T01:19:03.674Z,16.97
2022-08-26T01:24:10.840Z,16.98
2022-08-26T01:29:18.642Z,17.02
2022-08-26T01:34:27.348Z,17.01
2022-08-26T01:39:34.626Z,16.96
2022-08-26T01:44:42.149Z,16.88
2022-08-26T01:49:49.678Z,16.84
2022-08-26T01:54:56.365Z,16.83
2022-08-26T02:00:03.417Z,16.83
2022-08-26T02:05:10.916Z,16.82
2022-08-26T02:10:17.825Z,16.83
2022-08-26T02:15:25.042Z,16.84
2022-08-26T02:20:32.600Z,16.82
2022-08-26T02:25:40.256Z,16.8
2022-08-26T02:30:48.530Z,16.74
2022-08-26T02:35:56.180Z,16.69
2022-08-26T02:41:03.138Z,16.56
2022-08-26T02:46:11.636Z,16.56
2022-08-26T02:51:19.322Z,16.56
2022-08-26T02:56:27.412Z,16.52
2022-08-26T03:01:34.293Z,16.52
2022-08-26T03:06:42.130Z,16.5
2022-08-26T03:11:49.732Z,16.46
2022-08-26T03:16:57.510Z,16.44
2022-08-26T03:22:04.369Z,16.46
2022-08-26T03:27:14.006Z,16.44
2022-08-26T03:32:22.484Z,16.38
2022-08-26T03:37:35.269Z,16.39
2022-08-26T03:42:42.151Z,16.36
2022-08-26T03:47:50.042Z,16.3
2022-08-26T03:52:57.496Z,16.23
2022-08-26T03:58:05.737Z,16.26
2022-08-26T04:03:12.837Z,16.17
2022-08-26T04:08:20.997Z,16.25
2022-08-26T04:13:29.169Z,16.28
2022-08-26T04:18:36.450Z,16.33
2022-08-26T04:23:42.937Z,16.33
2022-08-26T04:28:52.237Z,16.36
2022-08-26T04:34:05.801Z,16.5
2022-08-26T04:39:14.009Z,16.56
2022-08-26T04:44:21.415Z,16.62
2022-08-26T04:49:29.469Z,16.75
2022-08-26T04:54:37.049Z,17.14
2022-08-26T04:59:45.665Z,17.79
2022-08-26T05:04:52.705Z,18.4
2022-08-26T05:09:59.135Z,18.99
2022-08-26T05:15:07.097Z,19.62
2022-08-26T05:20:15.144Z,20.02
2022-08-26T05:25:23.944Z,20.56
2022-08-26T05:30:32.412Z,20.88
2022-08-26T05:35:39.769Z,21.21
2022-08-26T05:40:48.087Z,21.42
2022-08-26T05:45:55.396Z,21.57
2022-08-26T05:51:02.639Z,21.58
2022-08-26T05:56:09.532Z,20.8
2022-08-26T06:01:17.842Z,20.26
2022-08-26T06:06:24.243Z,20.02
2022-08-26T06:11:31.753Z,20.38
2022-08-26T06:16:40.478Z,21.38
2022-08-26T06:21:49.132Z,22.28
2022-08-26T06:26:58.094Z,22.84
2022-08-26T06:32:05.940Z,23.3
2022-08-26T06:37:14.659Z,23.58
2022-08-26T06:42:23.052Z,23.71
2022-08-26T06:47:30.813Z,23.98
2022-08-26T06:52:38.009Z,24.25
2022-08-26T06:57:46.327Z,24.53
2022-08-26T07:02:54.237Z,24.79
2022-08-26T07:08:01.783Z,25.2
2022-08-26T07:13:09.645Z,25.47
2022-08-26T07:18:17.520Z,25.65
2022-08-26T07:23:25.364Z,26.1
2022-08-26T07:28:32.310Z,26.5
2022-08-26T07:33:40.229Z,26.58
2022-08-26T07:38:47.134Z,26.51
2022-08-26T07:43:54.801Z,26.74
2022-08-26T07:49:02.481Z,27.03
2022-08-26T07:54:10.332Z,26.94
2022-08-26T07:59:18.619Z,27.2
2022-08-26T08:04:26.116Z,27.2
2022-08-26T08:09:33.658Z,27.78
2022-08-26T08:14:41.472Z,27.75
2022-08-26T08:19:48.690Z,28.06
2022-08-26T08:24:55.959Z,28.1
2022-08-26T08:30:04.244Z,28.3
2022-08-26T08:35:11.692Z,28.47
2022-08-26T08:40:19.690Z,28.66
2022-08-26T08:45:27.289Z,29.05
2022-08-26T08:50:35.189Z,29.31
2022-08-26T08:55:42.318Z,29.36
2022-08-26T09:00:50.121Z,29.28
2022-08-26T09:05:57.469Z,29.4
2022-08-26T09:11:04.533Z,29.8
2022-08-26T09:16:12.379Z,29.88
2022-08-26T09:21:19.962Z,29.92
2022-08-26T09:26:26.773Z,29.98
2022-08-26T09:31:34.574Z,30.0
2022-08-26T09:36:42.254Z,30.04
2022-08-26T09:41:50.806Z,30.26
2022-08-26T09:46:58.569Z,30.22
2022-08-26T09:52:05.963Z,30.76
2022-08-26T09:57:14.654Z,30.7
2022-08-26T10:02:22.058Z,30.73
2022-08-26T10:07:30.133Z,30.66
2022-08-26T10:12:37.337Z,30.8
2022-08-26T10:17:45.682Z,30.5
2022-08-26T10:22:52.591Z,30.38
2022-08-26T10:28:01.170Z,30.6
2022-08-26T10:33:08.048Z,30.04
2022-08-26T10:38:15.929Z,30.1
2022-08-26T10:43:24.106Z,30.29
2022-08-26T10:48:31.708Z,30.58
2022-08-26T10:53:39.401Z,30.69
2022-08-26T10:58:46.171Z,29.73
2022-08-26T11:03:53.176Z,30.69
2022-08-26T11:09:01.019Z,30.97
2022-08-26T11:14:08.973Z,31.42
2022-08-26T11:19:17.200Z,31.66
2022-08-26T11:24:25.634Z,30.9
2022-08-26T11:29:33.008Z,30.18
2022-08-26T11:34:40.253Z,29.86
2022-08-26T11:39:49.273Z,29.93
2022-08-26T11:44:57.382Z,30.6
2022-08-26T11:50:05.232Z,30.56
2022-08-26T11:55:13.483Z,30.14
2022-08-26T12:00:20.784Z,30.12
2022-08-26T12:05:28.574Z,30.55
2022-08-26T12:10:36.399Z,30.84
2022-08-26T12:15:44.287Z,30.7
2022-08-26T12:20:51.365Z,30.57
2022-08-26T12:25:59.261Z,30.78
2022-08-26T12:31:07.825Z,30.81
2022-08-26T12:36:16.402Z,31.38
2022-08-26T12:41:24.176Z,31.51
2022-08-26T12:46:37.664Z,31.86
2022-08-26T12:51:44.225Z,31.7
2022-08-26T12:56:51.419Z,31.52
2022-08-26T13:01:59.264Z,31.49
2022-08-26T13:07:06.713Z,31.6
2022-08-26T13:12:13.702Z,31.64
2022-08-26T13:17:21.446Z,31.78
2022-08-26T13:22:29.669Z,31.62
2022-08-26T13:27:37.180Z,31.57
2022-08-26T13:32:44.546Z,31.64
2022-08-26T13:37:52.177Z,31.62
2022-08-26T13:43:00.318Z,31.54
2022-08-26T13:48:09.388Z,31.42
2022-08-26T13:53:16.315Z,31.1
2022-08-26T13:58:22.935Z,30.71
2022-08-26T14:03:30.398Z,30.52
2022-08-26T14:08:39.059Z,30.56
2022-08-26T14:13:46.199Z,30.54
2022-08-26T14:18:53.708Z,30.58
2022-08-26T14:25:32.975Z,30.67
2022-08-26T14:30:38.935Z,30.9
2022-08-26T14:35:45.502Z,30.88
2022-08-26T14:40:52.660Z,31.02
2022-08-26T14:46:00.506Z,31.19
2022-08-26T14:51:07.597Z,31.16
2022-08-26T14:56:16.595Z,31.02
2022-08-26T15:01:24.765Z,30.85
2022-08-26T15:06:32.247Z,30.52
2022-08-26T15:11:39.789Z,30.3
2022-08-26T15:16:47.450Z,30.15
2022-08-26T15:21:54.166Z,30.34
2022-08-26T15:27:01.375Z,30.92
2022-08-26T15:32:12.359Z,30.96
2022-08-26T15:37:20.217Z,30.58
2022-08-26T15:42:26.134Z,30.26
2022-08-26T15:47:32.699Z,29.92
2022-08-26T15:52:39.851Z,29.55
2022-08-26T15:57:46.637Z,29.26
2022-08-26T16:02:54.168Z,28.78
2022-08-26T16:08:01.066Z,28.44
2022-08-26T16:13:08.434Z,28.14
2022-08-26T16:18:14.891Z,27.94
2022-08-26T16:23:21.827Z,27.79
2022-08-26T16:28:29.330Z,27.64
2022-08-26T16:33:37.501Z,27.47
2022-08-26T16:38:44.633Z,27.26
2022-08-26T16:43:52.480Z,27.04
2022-08-26T16:48:59.402Z,26.75
2022-08-26T16:54:06.037Z,26.39
2022-08-26T16:59:14.305Z,26.1
2022-08-26T17:04:21.712Z,25.78
2022-08-26T17:09:29.824Z,25.51
2022-08-26T17:14:38.172Z,25.33
2022-08-26T17:19:46.010Z,25.16
2022-08-26T17:24:53.853Z,24.98
2022-08-26T17:30:00.543Z,24.74
2022-08-26T17:35:07.742Z,24.44
2022-08-26T17:40:15.354Z,24.22
2022-08-26T17:45:22.820Z,24.07
2022-08-26T17:50:30.670Z,23.86
2022-08-26T17:55:39.089Z,23.62
2022-08-26T18:00:47.023Z,23.4
2022-08-26T18:05:54.007Z,23.26
2022-08-26T18:11:00.249Z,23.08
2022-08-26T18:16:07.259Z,22.89
2022-08-26T18:21:14.461Z,22.79
2022-08-26T18:26:21.656Z,22.75
2022-08-26T18:31:29.821Z,22.73
2022-08-26T18:36:37.424Z,22.67
2022-08-26T18:41:45.291Z,22.56
2022-08-26T18:46:53.051Z,22.66
2022-08-26T18:52:04.111Z,22.71
2022-08-26T18:57:17.048Z,22.69
2022-08-26T19:02:23.579Z,22.67
2022-08-26T19:07:30.201Z,22.62
2022-08-26T19:12:37.339Z,22.54
2022-08-26T19:17:44.535Z,22.44
2022-08-26T19:23:06.729Z,22.35
2022-08-26T19:28:15.296Z,22.26
2022-08-26T19:33:23.045Z,22.18
2022-08-26T19:38:30.291Z,22.14
2022-08-26T19:43:44.728Z,22.04
2022-08-26T19:48:50.777Z,21.96
2022-08-26T19:53:58.619Z,21.85
2022-08-26T19:59:05.179Z,21.74
2022-08-26T20:04:12.954Z,21.66
2022-08-26T20:09:20.379Z,21.56
2022-08-26T20:14:28.061Z,21.46
2022-08-26T20:19:35.256Z,21.34
2022-08-26T20:24:42.459Z,21.28
2022-08-26T20:29:50.808Z,21.28
2022-08-26T20:34:58.895Z,21.38
2022-08-26T20:40:08.332Z,21.58
2022-08-26T20:45:15.307Z,21.7
2022-08-26T20:50:22.300Z,22.08
2022-08-26T20:55:29.633Z,22.34
2022-08-26T21:00:38.037Z,21.71
2022-08-26T21:05:43.881Z,20.66
2022-08-26T21:10:49.851Z,19.94
2022-08-26T21:15:58.807Z,19.36
2022-08-26T21:21:06.006Z,18.9
2022-08-26T21:26:13.343Z,18.76
2022-08-26T21:31:20.840Z,18.64
2022-08-26T21:36:28.371Z,18.57
2022-08-26T21:41:37.296Z,18.62
2022-08-26T21:46:45.035Z,18.66
2022-08-26T21:51:52.408Z,18.64
2022-08-26T21:56:59.934Z,18.65
2022-08-26T22:03:38.499Z,18.71
2022-08-26T22:08:45.019Z,18.78
2022-08-26T22:13:52.216Z,18.76
2022-08-26T22:18:59.545Z,18.79
2022-08-26T22:24:06.948Z,18.85
2022-08-26T22:29:15.721Z,18.9
2022-08-26T22:34:22.644Z,18.93
2022-08-26T22:39:30.173Z,18.94
2022-08-26T22:44:38.276Z,18.94
2022-08-26T22:49:45.817Z,18.96
2022-08-26T22:54:53.978Z,18.98
2022-08-26T23:00:02.019Z,18.99
2022-08-26T23:05:09.337Z,18.96
2022-08-26T23:10:16.563Z,18.92
2022-08-26T23:15:23.738Z,18.96
2022-08-26T23:20:32.532Z,18.96
2022-08-26T23:25:41.071Z,18.97
2022-08-26T23:30:49.344Z,18.98
2022-08-26T23:35:57.615Z,19.01
2022-08-26T23:41:04.860Z,19.04
2022-08-26T23:46:12.712Z,19.04
2022-08-26T23:51:20.601Z,19.02
2022-08-26T23:56:28.464Z,19.01
